createdAt,value
2023-06-17T00:00:58.271Z,1.60
2023-06-17T00:03:25.473Z,1.85
2023-06-17T00:05:52.942Z,2.17
2023-06-17T00:08:20.937Z,1.35
2023-06-17T00:10:48.241Z,1.45
2023-06-17T00:13:20.336Z,1.42
2023-06-17T00:15:51.955Z,1.27
2023-06-17T00:18:20.829Z,2.03
2023-06-17T00:20:49.619Z,1.55
2023-06-17T00:23:16.904Z,1.45
2023-06-17T00:25:44.075Z,1.98
2023-06-17T00:28:11.276Z,1.63
2023-06-17T00:30:38.711Z,2.95
2023-06-17T00:33:06.455Z,2.20
2023-06-17T00:35:34.789Z,1.35
2023-06-17T00:38:02.229Z,2.13
2023-06-17T00:40:29.287Z,2.10
2023-06-17T00:42:56.296Z,1.85
2023-06-17T00:45:23.319Z,1.23
2023-06-17T00:47:51.621Z,2.33
2023-06-17T00:50:19.636Z,2.08
2023-06-17T00:52:51.622Z,2.03
2023-06-17T00:55:19.193Z,2.05
2023-06-17T00:57:48.775Z,1.90
2023-06-17T01:00:16.702Z,1.77
2023-06-17T01:02:46.332Z,1.40
2023-06-17T01:05:17.876Z,1.30
2023-06-17T01:08:16.126Z,1.10
2023-06-17T01:10:52.773Z,1.08
2023-06-17T01:13:20.390Z,0.98
2023-06-17T01:15:48.484Z,1.45
2023-06-17T01:18:19.113Z,1.45
2023-06-17T01:20:52.793Z,1.08
2023-06-17T01:23:22.447Z,1.50
2023-06-17T01:25:50.801Z,1.83
2023-06-17T01:28:20.470Z,2.17
2023-06-17T01:30:49.213Z,1.65
2023-06-17T01:33:17.183Z,1.80
2023-06-17T01:36:01.600Z,1.33
2023-06-17T01:39:05.141Z,1.45
2023-06-17T01:41:39.860Z,1.52
2023-06-17T01:44:09.804Z,1.38
2023-06-17T01:46:38.469Z,2.10
2023-06-17T01:49:05.572Z,2.15
2023-06-17T01:51:32.619Z,1.83
2023-06-17T01:53:59.650Z,1.88
2023-06-17T01:56:26.764Z,1.77
2023-06-17T01:58:53.823Z,1.52
2023-06-17T02:01:21.738Z,1.70
2023-06-17T02:03:48.868Z,1.65
2023-06-17T02:06:17.412Z,1.13
2023-06-17T02:08:45.322Z,1.58
2023-06-17T02:11:12.735Z,1.25
2023-06-17T02:13:39.765Z,2.40
2023-06-17T02:16:06.863Z,1.83
2023-06-17T02:18:34.835Z,1.58
2023-06-17T02:21:02.854Z,1.50
2023-06-17T02:23:30.654Z,1.58
2023-06-17T02:25:58.476Z,1.40
2023-06-17T02:28:25.781Z,2.03
2023-06-17T02:30:52.889Z,1.77
2023-06-17T02:33:20.023Z,1.20
2023-06-17T02:35:47.349Z,1.30
2023-06-17T02:38:15.285Z,1.00
2023-06-17T02:40:42.355Z,1.33
2023-06-17T02:43:09.424Z,1.35
2023-06-17T02:45:36.395Z,1.98
2023-06-17T02:48:03.735Z,1.65
2023-06-17T02:50:30.830Z,2.00
2023-06-17T02:52:57.928Z,1.50
2023-06-17T02:55:26.725Z,0.98
2023-06-17T02:57:54.376Z,1.48
2023-06-17T03:00:22.066Z,2.08
2023-06-17T03:02:50.194Z,1.65
2023-06-17T03:05:18.042Z,1.25
2023-06-17T03:07:46.947Z,1.75
2023-06-17T03:10:14.035Z,1.73
2023-06-17T03:12:41.021Z,1.33
2023-06-17T03:15:09.700Z,1.60
2023-06-17T03:17:38.416Z,1.23
2023-06-17T03:20:09.623Z,1.55
2023-06-17T03:22:36.701Z,1.27
2023-06-17T03:25:04.245Z,4.43
2023-06-17T03:27:31.281Z,0.95
2023-06-17T03:29:58.303Z,1.50
2023-06-17T03:32:25.309Z,1.38
2023-06-17T03:34:54.346Z,1.50
2023-06-17T03:37:22.007Z,1.75
2023-06-17T03:39:49.044Z,1.15
2023-06-17T03:42:17.516Z,0.88
2023-06-17T03:44:44.546Z,1.10
2023-06-17T03:47:11.904Z,1.55
2023-06-17T03:49:38.945Z,1.08
2023-06-17T03:52:06.762Z,1.77
2023-06-17T03:54:33.899Z,0.85
2023-06-17T03:57:01.097Z,1.23
2023-06-17T03:59:28.202Z,0.88
2023-06-17T04:01:55.328Z,1.58
2023-06-17T04:04:23.152Z,1.00
2023-06-17T04:06:50.673Z,1.73
2023-06-17T04:09:18.083Z,1.10
2023-06-17T04:11:45.236Z,1.15
2023-06-17T04:14:12.286Z,0.65
2023-06-17T04:16:39.381Z,1.58
2023-06-17T04:19:06.933Z,0.85
2023-06-17T04:21:34.230Z,1.50
2023-06-17T04:24:01.556Z,0.65
2023-06-17T04:26:29.349Z,0.80
2023-06-17T04:28:56.729Z,0.90
2023-06-17T04:31:24.127Z,1.40
2023-06-17T04:33:51.097Z,0.85
2023-06-17T04:36:18.721Z,0.65
2023-06-17T04:38:46.041Z,0.85
2023-06-17T04:41:13.357Z,0.60
2023-06-17T04:43:41.256Z,0.75
2023-06-17T04:46:09.549Z,1.30
2023-06-17T04:48:38.515Z,0.68
2023-06-17T04:51:07.177Z,1.40
2023-06-17T04:53:34.335Z,0.93
2023-06-17T04:56:01.705Z,1.10
2023-06-17T04:58:28.700Z,1.13
2023-06-17T05:00:55.750Z,1.38
2023-06-17T05:03:22.809Z,1.48
2023-06-17T05:05:49.910Z,0.80
2023-06-17T05:08:16.889Z,2.05
2023-06-17T05:10:44.037Z,1.23
2023-06-17T05:13:11.046Z,1.30
2023-06-17T05:15:38.070Z,1.35
2023-06-17T05:18:05.263Z,1.77
2023-06-17T05:20:32.331Z,1.13
2023-06-17T05:22:59.355Z,0.90
2023-06-17T05:25:26.422Z,1.75
2023-06-17T05:27:53.431Z,0.80
2023-06-17T05:30:20.676Z,1.08
2023-06-17T05:32:47.950Z,0.70
2023-06-17T05:35:15.021Z,0.75
2023-06-17T05:37:42.034Z,1.27
2023-06-17T05:40:09.785Z,1.15
2023-06-17T05:42:36.774Z,1.48
2023-06-17T05:45:03.928Z,1.50
2023-06-17T05:47:31.164Z,1.33
2023-06-17T05:49:58.165Z,0.95
2023-06-17T05:52:25.456Z,1.40
2023-06-17T05:54:52.453Z,1.45
2023-06-17T05:57:19.471Z,0.88
2023-06-17T05:59:46.484Z,1.38
2023-06-17T06:02:13.521Z,2.45
2023-06-17T06:04:40.588Z,0.88
2023-06-17T06:07:08.676Z,1.25
2023-06-17T06:09:35.816Z,1.13
2023-06-17T06:12:02.892Z,2.00
2023-06-17T06:14:29.948Z,1.08
2023-06-17T06:16:56.935Z,1.10
2023-06-17T06:19:24.345Z,1.02
2023-06-17T06:21:51.376Z,1.50
2023-06-17T06:24:18.418Z,0.95
2023-06-17T06:26:45.544Z,0.88
2023-06-17T06:29:14.490Z,0.63
2023-06-17T06:31:44.555Z,0.50
2023-06-17T06:34:11.821Z,1.00
2023-06-17T06:36:38.841Z,0.52
2023-06-17T06:39:05.886Z,0.73
2023-06-17T06:41:33.009Z,1.80
2023-06-17T06:44:00.048Z,1.30
2023-06-17T06:46:27.416Z,1.17
2023-06-17T06:48:54.687Z,1.80
2023-06-17T06:51:21.944Z,1.15
2023-06-17T06:53:50.050Z,1.17
2023-06-17T06:56:17.081Z,1.00
2023-06-17T06:58:44.100Z,1.60
2023-06-17T07:01:11.193Z,2.45
2023-06-17T07:03:38.571Z,0.80
2023-06-17T07:06:05.778Z,0.32
2023-06-17T07:08:32.824Z,0.93
2023-06-17T07:10:59.830Z,0.45
2023-06-17T07:13:27.585Z,0.68
2023-06-17T07:15:54.641Z,0.75
2023-06-17T07:18:21.654Z,0.70
2023-06-17T07:20:48.513Z,0.65
2023-06-17T07:23:15.533Z,0.10
2023-06-17T07:25:42.564Z,1.00
2023-06-17T07:28:09.820Z,1.00
2023-06-17T07:30:36.913Z,1.48
2023-06-17T07:33:04.938Z,1.38
2023-06-17T07:35:32.088Z,0.85
2023-06-17T07:37:59.323Z,1.25
2023-06-17T07:40:26.819Z,0.88
2023-06-17T07:42:53.860Z,0.60
2023-06-17T07:45:21.051Z,0.50
2023-06-17T07:47:49.340Z,0.60
2023-06-17T07:50:16.471Z,1.05
2023-06-17T07:52:43.671Z,0.75
2023-06-17T07:55:11.915Z,0.90
2023-06-17T07:57:39.110Z,0.60
2023-06-17T08:00:11.368Z,0.50
2023-06-17T08:05:06.113Z,0.80
2023-06-17T08:07:33.157Z,0.98
2023-06-17T08:10:00.194Z,0.77
2023-06-17T08:12:27.280Z,0.45
2023-06-17T08:14:54.347Z,0.95
2023-06-17T08:17:22.027Z,0.63
2023-06-17T08:19:49.092Z,0.80
2023-06-17T08:22:16.286Z,0.60
2023-06-17T08:24:43.415Z,0.40
2023-06-17T08:27:13.305Z,0.40
2023-06-17T08:29:41.217Z,0.30
2023-06-17T08:32:08.563Z,0.30
2023-06-17T08:34:36.318Z,0.60
2023-06-17T08:37:05.924Z,0.55
2023-06-17T08:39:33.312Z,0.30
2023-06-17T08:42:00.827Z,0.60
2023-06-17T08:44:32.920Z,0.52
2023-06-17T08:47:06.469Z,0.63
2023-06-17T08:49:34.963Z,0.63
2023-06-17T08:52:03.631Z,0.32
2023-06-17T08:54:41.203Z,0.20
2023-06-17T08:57:14.063Z,0.40
2023-06-17T08:59:44.491Z,0.88
2023-06-17T09:02:12.007Z,0.52
2023-06-17T09:04:40.611Z,0.22
2023-06-17T09:07:10.823Z,0.20
2023-06-17T09:09:38.597Z,0.40
2023-06-17T09:12:07.354Z,0.30
2023-06-17T09:14:35.402Z,0.50
2023-06-17T09:17:04.169Z,0.95
2023-06-17T09:19:33.684Z,0.65
2023-06-17T09:22:18.658Z,0.47
2023-06-17T09:24:47.475Z,0.22
2023-06-17T09:27:23.865Z,0.57
2023-06-17T09:30:14.522Z,0.55
2023-06-17T09:32:44.234Z,0.40
2023-06-17T09:35:18.253Z,0.32
2023-06-17T09:38:03.107Z,0.32
2023-06-17T09:40:34.892Z,0.68
2023-06-17T09:43:25.069Z,0.77
2023-06-17T09:46:04.251Z,0.50
2023-06-17T09:48:36.823Z,0.52
2023-06-17T09:51:10.862Z,0.68
2023-06-17T09:53:39.104Z,0.38
2023-06-17T09:56:12.211Z,0.95
2023-06-17T09:58:44.023Z,0.57
2023-06-17T10:01:13.232Z,0.88
2023-06-17T10:03:43.727Z,0.52
2023-06-17T10:06:13.135Z,0.65
2023-06-17T10:08:50.246Z,0.82
2023-06-17T10:11:21.402Z,0.73
2023-06-17T10:13:57.355Z,0.30
2023-06-17T10:16:29.338Z,0.43
2023-06-17T10:19:00.536Z,0.60
2023-06-17T10:21:30.566Z,0.93
2023-06-17T10:24:01.218Z,0.20
2023-06-17T10:26:32.067Z,0.45
2023-06-17T10:29:03.199Z,1.33
2023-06-17T10:31:33.161Z,0.90
2023-06-17T10:34:04.816Z,0.50
2023-06-17T10:36:37.350Z,0.57
2023-06-17T10:39:12.302Z,0.65
2023-06-17T10:41:39.401Z,0.77
2023-06-17T10:44:22.092Z,0.68
2023-06-17T10:46:52.373Z,0.40
2023-06-17T10:49:20.735Z,0.43
2023-06-17T10:51:57.931Z,0.40
2023-06-17T10:54:34.220Z,0.60
2023-06-17T10:57:07.722Z,1.05
2023-06-17T10:59:34.900Z,0.35
2023-06-17T11:02:10.171Z,0.52
2023-06-17T11:04:44.186Z,0.30
2023-06-17T11:07:14.577Z,0.75
2023-06-17T11:09:41.604Z,0.60
2023-06-17T11:12:09.211Z,1.27
2023-06-17T11:14:38.697Z,0.43
2023-06-17T11:17:06.044Z,1.17
2023-06-17T11:19:33.206Z,1.20
2023-06-17T11:22:04.517Z,0.73
2023-06-17T11:24:32.835Z,0.77
2023-06-17T11:27:01.607Z,0.93
2023-06-17T11:29:30.489Z,0.47
2023-06-17T11:32:02.264Z,0.90
2023-06-17T11:34:33.366Z,0.60
2023-06-17T11:37:03.357Z,0.82
2023-06-17T11:39:34.197Z,0.73
2023-06-17T11:42:03.585Z,0.68
2023-06-17T11:44:32.895Z,0.93
2023-06-17T11:47:10.767Z,1.55
2023-06-17T11:49:46.080Z,0.82
2023-06-17T11:52:15.164Z,0.95
2023-06-17T11:54:53.212Z,1.00
2023-06-17T11:57:23.729Z,1.60
2023-06-17T11:59:52.258Z,0.88
2023-06-17T12:02:20.299Z,1.08
2023-06-17T12:04:48.472Z,1.00
2023-06-17T12:07:15.805Z,0.63
2023-06-17T12:09:54.465Z,0.57
2023-06-17T12:12:33.759Z,1.27
2023-06-17T12:15:15.663Z,1.08
2023-06-17T12:17:54.419Z,0.88
2023-06-17T12:20:22.783Z,1.40
2023-06-17T12:22:52.302Z,0.90
2023-06-17T12:25:20.626Z,1.10
2023-06-17T12:27:48.131Z,0.68
2023-06-17T12:30:15.719Z,0.70
2023-06-17T12:32:44.324Z,0.57
2023-06-17T12:35:13.279Z,0.82
2023-06-17T12:37:45.168Z,0.68
2023-06-17T12:40:12.891Z,1.70
2023-06-17T12:42:40.761Z,1.00
2023-06-17T12:45:09.034Z,1.15
2023-06-17T12:47:38.091Z,0.55
2023-06-17T12:50:09.196Z,0.77
2023-06-17T12:52:36.219Z,0.85
2023-06-17T12:55:06.142Z,0.73
2023-06-17T12:57:34.675Z,0.98
2023-06-17T13:00:02.788Z,0.70
2023-06-17T13:02:32.546Z,0.60
2023-06-17T13:04:59.724Z,0.73
2023-06-17T13:07:28.191Z,0.43
2023-06-17T13:09:57.067Z,1.00
2023-06-17T13:12:24.208Z,0.52
2023-06-17T13:14:51.218Z,0.47
2023-06-17T13:17:18.543Z,1.40
2023-06-17T13:19:45.695Z,1.42
2023-06-17T13:22:13.473Z,0.73
2023-06-17T13:24:40.732Z,0.73
2023-06-17T13:27:08.901Z,1.40
2023-06-17T13:29:36.258Z,1.05
2023-06-17T13:32:04.395Z,0.75
2023-06-17T13:34:31.448Z,0.57
2023-06-17T13:36:58.646Z,0.93
2023-06-17T13:39:25.764Z,2.45
2023-06-17T13:41:53.240Z,0.65
2023-06-17T13:44:20.261Z,0.95
2023-06-17T13:46:48.680Z,1.42
2023-06-17T13:49:16.202Z,1.15
2023-06-17T13:51:43.176Z,1.05
2023-06-17T13:54:10.454Z,0.77
2023-06-17T13:56:37.505Z,0.73
2023-06-17T13:59:04.572Z,0.98
2023-06-17T14:01:31.663Z,1.08
2023-06-17T14:03:59.413Z,0.90
2023-06-17T14:06:27.017Z,2.10
2023-06-17T14:08:54.096Z,0.55
2023-06-17T14:11:23.459Z,1.83
2023-06-17T14:13:50.771Z,2.10
2023-06-17T14:16:18.392Z,1.55
2023-06-17T14:18:45.452Z,1.52
2023-06-17T14:21:34.199Z,0.93
2023-06-17T14:24:06.884Z,1.23
2023-06-17T14:26:41.014Z,1.35
2023-06-17T14:29:09.913Z,2.05
2023-06-17T14:31:37.940Z,2.15
2023-06-17T14:34:05.051Z,1.55
2023-06-17T14:36:32.352Z,1.95
2023-06-17T14:39:01.632Z,1.30
2023-06-17T14:41:30.146Z,1.23
2023-06-17T14:43:59.184Z,1.40
2023-06-17T14:46:26.253Z,1.02
2023-06-17T14:48:53.405Z,0.95
2023-06-17T14:51:20.589Z,2.60
2023-06-17T14:53:47.612Z,1.23
2023-06-17T14:56:29.686Z,2.42
2023-06-17T14:59:03.343Z,1.17
2023-06-17T15:01:35.394Z,0.98
2023-06-17T15:06:31.690Z,2.95
2023-06-17T15:09:27.181Z,2.83
2023-06-17T15:11:57.461Z,1.23
2023-06-17T15:14:28.793Z,1.58
2023-06-17T15:16:56.232Z,1.60
2023-06-17T15:19:23.571Z,2.65
2023-06-17T15:21:51.688Z,1.48
2023-06-17T15:24:18.988Z,2.33
2023-06-17T15:26:47.436Z,2.10
2023-06-17T15:29:15.645Z,1.98
2023-06-17T15:31:43.201Z,3.45
2023-06-17T15:34:11.443Z,2.13
2023-06-17T15:36:38.565Z,2.22
2023-06-17T15:39:28.944Z,1.75
2023-06-17T15:41:56.221Z,1.73
2023-06-17T15:44:23.562Z,2.50
2023-06-17T15:46:51.694Z,2.40
2023-06-17T15:49:18.915Z,1.55
2023-06-17T15:51:45.987Z,1.77
2023-06-17T15:54:13.152Z,2.38
2023-06-17T15:56:40.758Z,1.42
2023-06-17T15:59:08.272Z,1.67
2023-06-17T16:01:35.486Z,1.80
2023-06-17T16:04:39.145Z,2.60
2023-06-17T16:07:11.940Z,1.67
2023-06-17T16:09:49.156Z,1.92
2023-06-17T16:12:17.734Z,1.92
2023-06-17T16:14:47.090Z,2.03
2023-06-17T16:17:14.440Z,2.10
2023-06-17T16:19:41.688Z,1.90
2023-06-17T16:22:11.527Z,2.28
2023-06-17T16:24:41.151Z,2.35
2023-06-17T16:27:09.559Z,1.83
2023-06-17T16:29:36.707Z,2.97
2023-06-17T16:32:04.623Z,2.22
2023-06-17T16:34:31.779Z,2.92
2023-06-17T16:36:58.919Z,2.10
2023-06-17T16:39:26.446Z,2.30
2023-06-17T16:41:53.996Z,2.63
2023-06-17T16:44:21.241Z,2.80
2023-06-17T16:46:48.703Z,2.67
2023-06-17T16:49:15.873Z,2.17
2023-06-17T16:51:42.975Z,2.13
2023-06-17T16:54:10.156Z,2.45
2023-06-17T16:56:37.567Z,2.88
2023-06-17T16:59:05.021Z,2.80
2023-06-17T17:01:32.277Z,1.58
2023-06-17T17:04:01.767Z,2.40
2023-06-17T17:06:34.205Z,2.45
2023-06-17T17:09:01.274Z,2.03
2023-06-17T17:11:28.329Z,2.25
2023-06-17T17:13:55.717Z,1.92
2023-06-17T17:16:23.490Z,1.65
2023-06-17T17:18:50.660Z,2.55
2023-06-17T17:21:18.047Z,1.77
2023-06-17T17:23:46.316Z,2.13
2023-06-17T17:26:13.924Z,1.73
2023-06-17T17:28:42.543Z,2.75
2023-06-17T17:31:10.245Z,0.63
2023-06-17T17:33:37.733Z,0.65
2023-06-17T17:36:05.147Z,1.40
2023-06-17T17:38:32.483Z,2.28
2023-06-17T17:40:59.501Z,1.75
2023-06-17T17:43:28.093Z,3.33
2023-06-17T17:45:56.870Z,2.35
2023-06-17T17:48:23.998Z,1.83
2023-06-17T17:50:51.152Z,2.05
2023-06-17T17:53:18.226Z,2.20
2023-06-17T17:55:45.457Z,1.60
2023-06-17T17:58:12.525Z,2.35
2023-06-17T18:00:39.647Z,1.60
2023-06-17T18:03:06.817Z,0.85
2023-06-17T18:05:33.870Z,2.28
2023-06-17T18:08:01.083Z,2.03
2023-06-17T18:10:28.266Z,1.77
2023-06-17T18:12:55.327Z,2.28
2023-06-17T18:15:22.470Z,1.67
2023-06-17T18:17:49.531Z,1.20
2023-06-17T18:20:16.606Z,1.23
2023-06-17T18:22:43.609Z,1.55
2023-06-17T18:25:11.202Z,1.17
2023-06-17T18:27:39.960Z,1.48
2023-06-17T18:30:08.633Z,1.42
2023-06-17T18:32:35.865Z,1.10
2023-06-17T18:35:03.799Z,0.93
2023-06-17T18:37:30.937Z,0.93
2023-06-17T18:39:58.220Z,0.77
2023-06-17T18:42:25.249Z,2.08
2023-06-17T18:44:52.491Z,1.77
2023-06-17T18:47:19.560Z,1.73
2023-06-17T18:49:48.142Z,0.98
2023-06-17T18:52:16.830Z,1.45
2023-06-17T18:54:43.910Z,1.40
2023-06-17T18:57:11.417Z,1.48
2023-06-17T18:59:38.399Z,1.42
2023-06-17T19:02:05.686Z,1.88
2023-06-17T19:04:32.641Z,1.35
2023-06-17T19:06:59.784Z,1.10
2023-06-17T19:09:27.488Z,0.95
2023-06-17T19:12:00.515Z,1.05
2023-06-17T19:14:27.939Z,1.00
2023-06-17T19:16:55.347Z,1.38
2023-06-17T19:19:22.420Z,1.17
2023-06-17T19:21:49.664Z,0.65
2023-06-17T19:24:18.485Z,0.98
2023-06-17T19:26:45.705Z,0.93
2023-06-17T19:29:12.772Z,1.10
2023-06-17T19:31:39.786Z,0.95
2023-06-17T19:34:06.840Z,0.90
2023-06-17T19:36:33.831Z,0.77
2023-06-17T19:39:00.817Z,0.63
2023-06-17T19:41:29.017Z,1.02
2023-06-17T19:43:57.694Z,0.70
2023-06-17T19:46:24.846Z,1.25
2023-06-17T19:48:51.998Z,0.95
2023-06-17T19:51:19.046Z,1.55
2023-06-17T19:53:46.228Z,1.75
2023-06-17T19:56:13.247Z,1.00
2023-06-17T19:58:40.557Z,2.60
2023-06-17T20:01:07.659Z,1.92
2023-06-17T20:03:34.969Z,1.35
2023-06-17T20:06:02.875Z,1.48
2023-06-17T20:08:30.766Z,1.00
2023-06-17T20:11:02.221Z,1.30
2023-06-17T20:13:29.277Z,1.23
2023-06-17T20:15:56.315Z,1.75
2023-06-17T20:18:23.484Z,1.45
2023-06-17T20:20:50.837Z,1.13
2023-06-17T20:23:17.859Z,1.90
2023-06-17T20:25:44.982Z,2.08
2023-06-17T20:28:11.990Z,1.30
2023-06-17T20:30:39.003Z,1.75
2023-06-17T20:33:06.046Z,1.13
2023-06-17T20:35:33.159Z,1.08
2023-06-17T20:38:00.182Z,1.85
2023-06-17T20:40:28.022Z,1.98
2023-06-17T20:42:55.093Z,0.98
2023-06-17T20:45:22.149Z,1.67
2023-06-17T20:47:49.232Z,2.00
2023-06-17T20:50:16.636Z,1.08
2023-06-17T20:52:43.615Z,1.92
2023-06-17T20:55:10.880Z,1.50
2023-06-17T20:57:38.041Z,2.03
2023-06-17T21:00:05.992Z,1.65
2023-06-17T21:02:33.077Z,0.98
2023-06-17T21:05:00.276Z,0.95
2023-06-17T21:07:27.365Z,1.13
2023-06-17T21:09:54.860Z,0.95
2023-06-17T21:12:22.157Z,1.33
2023-06-17T21:14:49.261Z,2.92
2023-06-17T21:17:16.949Z,2.50
2023-06-17T21:19:43.997Z,2.50
2023-06-17T21:22:11.048Z,2.63
2023-06-17T21:24:38.650Z,2.28
2023-06-17T21:27:10.420Z,2.08
2023-06-17T21:29:41.367Z,1.95
2023-06-17T21:32:11.759Z,2.55
2023-06-17T21:34:38.853Z,2.00
2023-06-17T21:37:06.208Z,2.92
2023-06-17T21:39:33.273Z,2.70
2023-06-17T21:42:00.614Z,2.17
2023-06-17T21:44:27.658Z,2.40
2023-06-17T21:46:54.743Z,2.42
2023-06-17T21:49:21.857Z,1.88
2023-06-17T21:51:50.034Z,2.30
2023-06-17T21:54:17.257Z,2.10
2023-06-17T21:56:44.284Z,1.92
2023-06-17T21:59:11.325Z,3.25
2023-06-17T22:01:38.424Z,2.10
2023-06-17T22:04:05.744Z,2.70
2023-06-17T22:06:32.923Z,2.92
2023-06-17T22:09:00.013Z,2.28
2023-06-17T22:11:27.021Z,2.50
2023-06-17T22:13:54.090Z,2.60
2023-06-17T22:16:21.234Z,2.95
2023-06-17T22:18:48.262Z,3.35
2023-06-17T22:21:15.381Z,2.72
2023-06-17T22:23:42.455Z,2.65
2023-06-17T22:26:09.418Z,3.20
2023-06-17T22:28:36.556Z,3.30
2023-06-17T22:31:03.567Z,2.70
2023-06-17T22:33:30.727Z,2.65
2023-06-17T22:35:57.778Z,3.17
2023-06-17T22:38:24.860Z,2.40
2023-06-17T22:40:51.907Z,3.42
2023-06-17T22:43:20.640Z,3.10
2023-06-17T22:45:48.115Z,2.50
2023-06-17T22:48:15.122Z,3.45
2023-06-17T22:50:42.498Z,3.17
2023-06-17T22:53:09.734Z,3.22
2023-06-17T22:55:37.677Z,2.22
2023-06-17T22:58:04.904Z,3.28
2023-06-17T23:00:31.938Z,2.33
2023-06-17T23:02:59.017Z,2.15
2023-06-17T23:05:26.068Z,3.25
2023-06-17T23:07:53.144Z,3.30
2023-06-17T23:10:20.755Z,2.17
2023-06-17T23:12:48.061Z,3.33
2023-06-17T23:15:15.088Z,2.85
2023-06-17T23:17:42.140Z,2.08
2023-06-17T23:20:09.606Z,3.38
2023-06-17T23:22:36.994Z,3.25
2023-06-17T23:25:08.110Z,2.03
2023-06-17T23:27:35.660Z,2.45
2023-06-17T23:30:03.002Z,2.25
2023-06-17T23:32:30.086Z,3.45
2023-06-17T23:34:57.463Z,2.70
2023-06-17T23:37:26.527Z,3.03
2023-06-17T23:39:53.780Z,2.67
2023-06-17T23:42:20.896Z,2.92
2023-06-17T23:44:49.499Z,2.03
2023-06-17T23:47:18.482Z,1.90
2023-06-17T23:49:46.384Z,3.10
2023-06-17T23:52:14.045Z,2.78
2023-06-17T23:54:41.932Z,2.85
2023-06-17T23:57:09.034Z,2.78
2023-06-17T23:59:36.921Z,2.80
